Archival Weather

Chicago O'Hare International

Chicago, Illinois (KORD)

Report from: Thursday, May 11, 2023 6:51 PM CDT
Current time: Sunday, February 25, 2024 4:39 PM CST

Current weather – Weather history – Daily summaries
Weather forecast

Temperature25.0°C (77.0°F)
Dew point4.4°C (39.9°F)
Winds 8 kts (4.1 m/s, 9.2 mph) East (90°)
Visibility10 mi. (16.1 km)
Clouds Few clouds 12,000 ft. (3,658 m)
Scattered clouds 25,000 ft. (7,620 m)
Ceiling: Broken clouds 35,000 ft. (10,668 m)
Altimeter30.00 in.Hg (1016 mB)
Relative humidity26 %
Density altitude1,205 ft. (367 m)
Sea-level pressure101.6 kPa (1016 mB, 29.99 in.Hg)
Max temp last 6 hours28.9°C (84.0°F)
Min temp last 6 hours25.0°C (77.0°F)
Remarks Automated weather observing station with precipitation discriminator
Pressure falling more slowly
Flight conditions Visual Meteorological Conditions
Raw dataKORD 112351Z 09008KT 10SM FEW120 SCT250 BKN350 25/04 A3000 RMK AO2 SLP156 T02500044 10289 20250 56002
An error has occurred. This application may no longer respond until reloaded. Reload 🗙